Time;durP1;ratioP1;P1;durP2;ratioP2;P2;SDS_P1;SDS_P2;PMS_P1;PMS_P2;Temp;Humidity;BMP_temperature;BMP_pressure;BME280_temperature;BME280_humidity;BME280_pressure;Samples;Min_cycle;Max_cycle;Signal;HPM_P1;HPM_P2
2024/03/13 00:00:04;;;;;;;9.73;4.35;;;;;;;10.30;88.79;100806.84;5095737;28;20038;-67
2024/03/13 00:02:37;;;;;;;10.90;4.55;;;;;;;10.33;88.59;100814.22;5092513;28;20067;-67
2024/03/13 00:05:04;;;;;;;9.38;3.70;;;;;;;10.31;88.57;100813.78;5091706;28;20506;-67
2024/03/13 00:07:31;;;;;;;9.55;3.35;;;;;;;10.30;88.85;100818.38;5090633;28;20119;-67
2024/03/13 00:09:57;;;;;;;8.05;4.43;;;;;;;10.31;88.72;100814.56;5096434;28;20051;-67
2024/03/13 00:12:24;;;;;;;10.95;4.18;;;;;;;10.33;89.30;100814.22;5094546;28;20062;-67
2024/03/13 00:14:51;;;;;;;10.88;4.47;;;;;;;10.28;89.64;100811.78;5099132;28;20027;-67
2024/03/13 00:17:20;;;;;;;8.93;3.95;;;;;;;10.29;89.33;100816.03;5093299;28;20084;-67
2024/03/13 00:19:50;;;;;;;12.80;5.30;;;;;;;10.30;89.77;100815.69;5094285;28;20066;-67
2024/03/13 00:22:19;;;;;;;13.77;5.35;;;;;;;10.28;90.53;100815.25;5094407;28;20042;-67
2024/03/13 00:24:50;;;;;;;8.93;4.43;;;;;;;10.16;91.07;100811.88;5091605;28;20031;-68
2024/03/13 00:27:16;;;;;;;10.35;3.85;;;;;;;10.03;91.87;100821.91;5095248;28;20578;-67
2024/03/13 00:29:44;;;;;;;9.55;4.38;;;;;;;10.09;91.18;100817.81;5090599;28;20024;-67
2024/03/13 00:32:11;;;;;;;12.23;4.55;;;;;;;10.15;90.90;100819.16;5092642;28;20660;-67
2024/03/13 00:34:37;;;;;;;16.58;5.55;;;;;;;10.15;91.05;100819.16;5084357;28;20032;-67
2024/03/13 00:37:03;;;;;;;11.40;4.82;;;;;;;10.10;90.74;100824.81;5086303;28;20036;-68
2024/03/13 00:39:29;;;;;;;9.95;4.70;;;;;;;9.94;91.74;100821.28;5087832;28;20498;-67
2024/03/13 00:41:55;;;;;;;15.82;4.53;;;;;;;9.97;91.90;100821.38;5088501;28;20406;-68
2024/03/13 00:44:22;;;;;;;10.27;4.45;;;;;;;9.89;91.92;100829.63;5087159;28;20029;-67
2024/03/13 00:46:48;;;;;;;12.88;5.13;;;;;;;9.82;92.60;100830.22;5089602;28;20061;-67
2024/03/13 00:49:15;;;;;;;11.52;5.07;;;;;;;9.71;93.14;100825.69;5083877;28;20092;-67
2024/03/13 00:51:40;;;;;;;16.02;6.32;;;;;;;9.69;92.88;100830.63;5090609;28;20027;-67
2024/03/13 00:54:05;;;;;;;19.60;6.53;;;;;;;9.68;93.90;100823.66;5090615;28;20028;-67
2024/03/13 00:56:32;;;;;;;14.30;5.63;;;;;;;9.73;93.53;100818.06;5094141;28;20039;-67
2024/03/13 00:58:58;;;;;;;11.98;5.15;;;;;;;9.73;93.59;100826.13;5089082;28;20035;-67
2024/03/13 01:01:24;;;;;;;14.20;4.85;;;;;;;9.80;93.19;100824.41;5086430;28;20038;-67
2024/03/13 01:03:50;;;;;;;17.23;5.43;;;;;;;9.77;93.45;100827.00;5089658;28;20032;-67
2024/03/13 01:06:17;;;;;;;10.75;5.10;;;;;;;9.69;93.35;100826.03;5093205;28;20073;-67
2024/03/13 01:08:44;;;;;;;10.90;4.90;;;;;;;9.82;92.78;100816.78;5089691;28;20032;-67
2024/03/13 01:11:10;;;;;;;16.10;5.25;;;;;;;9.92;91.36;100820.84;5093804;28;20046;-67
2024/03/13 01:13:36;;;;;;;11.85;5.35;;;;;;;9.87;91.00;100829.19;5090481;28;20036;-67
2024/03/13 01:16:01;;;;;;;8.02;4.18;;;;;;;9.82;91.67;100824.03;5094469;28;20047;-68
2024/03/13 01:18:27;;;;;;;19.88;6.53;;;;;;;9.72;92.62;100824.53;5087822;28;20557;-67
2024/03/13 01:20:53;;;;;;;13.90;6.32;;;;;;;9.82;92.00;100821.34;5083223;28;20137;-68
2024/03/13 01:23:20;;;;;;;16.77;6.20;;;;;;;9.78;91.50;100823.97;5087326;28;20028;-67
2024/03/13 01:25:47;;;;;;;15.77;5.45;;;;;;;9.69;91.50;100815.28;5093343;28;20077;-68
2024/03/13 01:28:13;;;;;;;13.05;4.80;;;;;;;9.68;91.12;100819.06;5088299;28;20032;-67
2024/03/13 01:30:39;;;;;;;12.18;5.72;;;;;;;9.70;90.81;100821.41;5081967;28;20028;-67
2024/03/13 01:33:05;;;;;;;12.40;4.70;;;;;;;9.66;90.96;100802.50;5088564;28;20418;-67
2024/03/13 01:35:31;;;;;;;11.13;5.22;;;;;;;9.69;90.35;100799.16;5085247;28;20229;-67
2024/03/13 01:37:58;;;;;;;12.70;4.85;;;;;;;9.67;90.29;100795.22;5084966;28;20051;-68
2024/03/13 01:54:54;;;;;;;12.55;5.15;;;;;;;9.43;88.36;100779.22;5084831;28;20542;-67
2024/03/13 01:57:29;;;;;;;11.55;5.28;;;;;;;9.35;89.16;100777.47;5084209;28;20099;-67
2024/03/13 02:02:44;;;;;;;11.05;4.47;;;;;;;9.36;88.61;100765.59;5087646;28;20036;-67
2024/03/13 02:05:10;;;;;;;15.82;5.78;;;;;;;9.32;88.73;100760.13;5082592;28;20020;-67
2024/03/13 02:07:35;;;;;;;14.68;4.80;;;;;;;9.31;88.75;100755.09;5089465;28;20027;-67
2024/03/13 02:10:04;;;;;;;10.68;4.68;;;;;;;9.27;89.53;100754.22;5088521;28;20119;-67
2024/03/13 02:12:30;;;;;;;13.15;5.75;;;;;;;9.27;89.61;100755.00;5089573;28;20055;-67
2024/03/13 02:14:55;;;;;;;13.82;5.00;;;;;;;9.25;88.71;100754.56;5088219;28;20504;-68
2024/03/13 02:17:21;;;;;;;14.65;5.28;;;;;;;9.35;89.15;100753.31;5105231;28;20134;-67
2024/03/13 02:19:47;;;;;;;16.08;5.40;;;;;;;9.19;89.30;100760.53;5087757;28;20081;-67
2024/03/13 02:22:14;;;;;;;11.80;5.18;;;;;;;9.09;89.71;100759.91;5087421;28;20554;-67
2024/03/13 02:24:40;;;;;;;16.05;5.15;;;;;;;9.06;89.06;100755.19;5093077;28;20028;-67
2024/03/13 02:27:12;;;;;;;18.05;6.72;;;;;;;9.07;88.14;100755.97;5087945;28;20478;-67
2024/03/13 02:29:41;;;;;;;13.23;5.30;;;;;;;9.07;88.60;100772.91;5086182;28;20560;-67
2024/03/13 02:32:06;;;;;;;13.68;5.05;;;;;;;9.03;88.42;100763.16;5072010;28;20028;-68
2024/03/13 02:34:34;;;;;;;14.63;5.60;;;;;;;8.91;88.76;100758.63;5090299;28;20039;-67
2024/03/13 02:36:59;;;;;;;13.32;5.20;;;;;;;9.01;88.45;100762.72;5087862;28;20043;-67
2024/03/13 02:39:25;;;;;;;17.13;6.25;;;;;;;9.08;88.99;100763.69;5090609;28;20027;-68
2024/03/13 02:41:51;;;;;;;12.93;5.55;;;;;;;9.10;89.29;100766.03;5093508;28;20031;-68
2024/03/13 02:44:17;;;;;;;11.77;5.15;;;;;;;9.13;89.08;100781.50;5085113;28;20041;-67
2024/03/13 02:46:43;;;;;;;14.90;5.20;;;;;;;9.03;90.06;100771.22;5089692;28;20076;-67
2024/03/13 02:49:09;;;;;;;13.30;5.35;;;;;;;9.00;89.98;100769.22;5091068;28;20031;-68
2024/03/13 02:51:35;;;;;;;20.85;6.72;;;;;;;8.93;90.17;100763.63;5072279;28;20109;-67
2024/03/13 02:54:00;;;;;;;21.27;6.38;;;;;;;8.95;90.62;100770.25;5084185;28;20037;-67
2024/03/13 02:56:26;;;;;;;12.02;5.13;;;;;;;8.95;91.13;100764.88;5085099;28;20090;-68
2024/03/13 02:58:52;;;;;;;12.85;5.95;;;;;;;8.91;90.82;100768.56;5091636;28;20031;-67
2024/03/13 03:01:18;;;;;;;13.65;4.72;;;;;;;8.85;90.45;100754.59;5091514;28;20032;-68
2024/03/13 03:03:43;;;;;;;16.17;5.93;;;;;;;8.88;90.13;100745.09;5090416;28;20023;-67
2024/03/13 03:06:09;;;;;;;16.45;5.43;;;;;;;8.74;90.84;100739.31;5088470;28;20077;-67
2024/03/13 03:08:37;;;;;;;16.35;5.55;;;;;;;8.83;90.44;100735.34;5094687;28;20040;-67
2024/03/13 03:11:06;;;;;;;14.88;5.60;;;;;;;8.68;90.90;100738.75;5090252;28;21488;-67
2024/03/13 03:13:32;;;;;;;16.83;6.05;;;;;;;8.85;90.92;100741.19;5092349;28;20073;-67
2024/03/13 03:15:59;;;;;;;14.25;5.25;;;;;;;8.81;90.28;100740.28;5093604;28;20520;-67
2024/03/13 03:18:25;;;;;;;18.48;5.53;;;;;;;8.73;90.24;100746.56;5093420;28;20165;-67
2024/03/13 03:20:52;;;;;;;16.17;5.93;;;;;;;8.69;90.43;100748.38;5094614;28;20032;-67
2024/03/13 03:23:18;;;;;;;16.20;5.50;;;;;;;8.69;90.37;100756.41;5090882;28;20395;-68
2024/03/13 03:25:44;;;;;;;14.45;5.50;;;;;;;8.72;90.11;100744.22;5094743;28;20031;-67
2024/03/13 03:28:13;;;;;;;15.77;6.25;;;;;;;8.83;89.85;100756.06;5089590;28;20532;-67
2024/03/13 03:30:41;;;;;;;15.43;5.57;;;;;;;8.78;89.62;100750.94;5091854;28;20463;-67
2024/03/13 03:33:07;;;;;;;9.38;4.53;;;;;;;8.78;89.42;100746.34;5090318;28;20035;-68
2024/03/13 03:35:34;;;;;;;14.02;4.65;;;;;;;8.68;90.45;100744.13;5089602;28;20035;-67
2024/03/13 03:38:04;;;;;;;13.18;4.88;;;;;;;8.65;90.68;100723.31;5091356;28;20387;-68
2024/03/13 03:40:30;;;;;;;12.77;5.65;;;;;;;8.59;91.12;100729.28;5091287;28;20043;-67
2024/03/13 03:42:58;;;;;;;12.23;5.38;;;;;;;8.57;90.76;100726.94;5095505;28;20023;-67
2024/03/13 03:45:28;;;;;;;15.95;5.30;;;;;;;8.58;90.32;100722.34;5090782;28;20042;-68
2024/03/13 03:47:54;;;;;;;19.55;6.10;;;;;;;8.52;90.89;100726.38;5091198;28;20028;-67
2024/03/13 03:50:20;;;;;;;21.60;5.80;;;;;;;8.55;90.34;100721.13;5087008;28;20071;-68
2024/03/13 03:52:47;;;;;;;18.23;5.70;;;;;;;8.51;90.27;100717.56;5089946;28;20036;-68
2024/03/13 03:55:14;;;;;;;16.85;6.05;;;;;;;8.54;90.14;100710.72;5091929;28;20067;-67
2024/03/13 03:57:40;;;;;;;16.95;6.35;;;;;;;8.52;91.13;100707.59;5088517;28;20466;-68
2024/03/13 04:00:10;;;;;;;12.43;5.32;;;;;;;8.52;90.79;100700.31;5088881;28;20372;-68
2024/03/13 04:02:37;;;;;;;22.63;6.07;;;;;;;8.59;90.90;100703.25;5093153;28;20031;-67
2024/03/13 04:05:06;;;;;;;22.20;5.88;;;;;;;8.65;90.49;100715.28;5094402;28;20039;-67
2024/03/13 04:07:32;;;;;;;13.70;5.35;;;;;;;8.51;90.78;100730.19;5089513;28;20082;-67
2024/03/13 04:09:58;;;;;;;13.88;5.75;;;;;;;8.38;91.18;100726.72;5091250;28;20039;-67
2024/03/13 04:12:23;;;;;;;17.55;7.05;;;;;;;8.40;91.17;100721.81;5091849;28;20024;-67
2024/03/13 04:14:49;;;;;;;13.20;5.47;;;;;;;8.43;90.98;100737.25;5093661;28;20019;-67
2024/03/13 04:17:14;;;;;;;19.10;6.20;;;;;;;8.44;90.45;100746.09;5095858;28;20514;-67
2024/03/13 04:19:40;;;;;;;17.75;6.13;;;;;;;8.46;90.39;100752.66;5094211;28;20516;-67
2024/03/13 04:22:08;;;;;;;16.23;5.25;;;;;;;8.41;90.34;100760.97;5089454;28;20039;-68
2024/03/13 04:24:34;;;;;;;15.63;5.18;;;;;;;8.34;90.02;100755.38;5093061;28;20067;-67
2024/03/13 04:26:59;;;;;;;14.55;5.50;;;;;;;8.33;89.75;100767.22;5124104;27;20090;-67
2024/03/13 04:29:25;;;;;;;15.80;6.25;;;;;;;8.34;89.15;100763.44;5093481;28;20043;-67
2024/03/13 04:31:50;;;;;;;20.73;6.43;;;;;;;8.43;88.28;100760.63;5092678;28;20031;-67
2024/03/13 04:34:16;;;;;;;17.27;6.03;;;;;;;8.30;88.57;100767.91;5094050;28;20143;-68
2024/03/13 04:36:42;;;;;;;17.77;6.40;;;;;;;8.37;89.38;100754.69;5093035;28;20062;-67
2024/03/13 04:39:07;;;;;;;18.00;6.93;;;;;;;8.36;89.71;100753.16;5089129;28;20043;-67
2024/03/13 04:41:33;;;;;;;22.27;6.65;;;;;;;8.43;89.60;100757.94;5091607;28;20032;-67
2024/03/13 04:44:01;;;;;;;14.90;4.95;;;;;;;8.20;90.32;100758.38;5092611;28;20031;-67
2024/03/13 04:46:27;;;;;;;21.27;6.28;;;;;;;8.14;91.03;100756.25;5093249;28;20028;-67
2024/03/13 04:48:52;;;;;;;22.10;5.47;;;;;;;8.13;90.71;100760.81;5092038;28;20039;-67
2024/03/13 04:51:18;;;;;;;18.95;7.18;;;;;;;8.22;90.68;100752.66;5091906;28;20506;-67
2024/03/13 04:53:43;;;;;;;16.50;5.65;;;;;;;8.29;90.65;100755.59;5092310;28;20032;-67
2024/03/13 04:56:11;;;;;;;19.20;5.68;;;;;;;8.16;91.29;100768.22;5087483;28;20075;-67
2024/03/13 04:58:37;;;;;;;15.30;5.00;;;;;;;8.23;90.36;100768.41;5092266;28;20524;-67
2024/03/13 05:01:03;;;;;;;16.88;5.40;;;;;;;8.13;91.18;100776.91;5069480;28;20111;-68
2024/03/13 05:03:30;;;;;;;16.40;5.15;;;;;;;8.02;91.41;100770.44;5098932;27;20036;-67
2024/03/13 05:05:56;;;;;;;18.33;5.80;;;;;;;8.15;90.79;100771.19;5073745;28;20426;-67
2024/03/13 05:08:21;;;;;;;18.13;5.85;;;;;;;7.94;91.36;100768.63;5089870;28;20044;-67
2024/03/13 05:10:47;;;;;;;20.60;6.20;;;;;;;8.09;90.96;100772.56;5086377;28;20036;-67
2024/03/13 05:13:13;;;;;;;20.42;7.15;;;;;;;8.14;90.51;100770.44;5088773;28;20040;-68
2024/03/13 05:15:39;;;;;;;18.35;5.32;;;;;;;8.05;91.78;100777.03;5075995;28;20081;-67
2024/03/13 05:18:05;;;;;;;14.63;6.03;;;;;;;8.05;91.70;100774.34;5090772;28;20035;-67
2024/03/13 05:20:30;;;;;;;15.40;6.03;;;;;;;8.05;91.26;100769.75;5091672;28;20505;-68
2024/03/13 05:22:55;;;;;;;15.05;4.93;;;;;;;8.00;91.49;100769.19;5087450;28;20105;-67
2024/03/13 05:25:24;;;;;;;15.32;4.75;;;;;;;8.07;91.38;100766.75;5087573;28;20434;-68
2024/03/13 05:27:50;;;;;;;17.75;6.47;;;;;;;8.08;91.36;100779.03;5093161;28;20040;-67
2024/03/13 05:30:16;;;;;;;27.33;6.07;;;;;;;8.06;91.63;100768.66;5090298;28;20081;-67
2024/03/13 05:32:42;;;;;;;11.80;4.93;;;;;;;7.96;91.50;100765.63;5087522;28;20056;-68
2024/03/13 05:35:12;;;;;;;19.70;5.20;;;;;;;8.12;91.24;100763.84;5090248;28;20063;-67
2024/03/13 05:37:39;;;;;;;14.98;4.45;;;;;;;8.11;90.54;100763.06;5089164;28;20410;-67
2024/03/13 05:40:17;;;;;;;15.68;6.63;;;;;;;7.95;92.03;100758.69;5105187;27;20107;-67
2024/03/13 05:42:43;;;;;;;12.93;4.90;;;;;;;7.94;92.09;100746.41;5084927;28;20048;-68
2024/03/13 05:45:09;;;;;;;16.65;5.88;;;;;;;7.91;92.13;100752.44;5087531;28;20078;-68
2024/03/13 05:47:35;;;;;;;12.70;5.13;;;;;;;7.93;92.06;100748.31;5091993;28;20419;-67
2024/03/13 05:50:01;;;;;;;13.90;6.57;;;;;;;7.94;92.00;100741.03;5120339;27;20060;-67
2024/03/13 05:52:27;;;;;;;18.80;5.30;;;;;;;7.91;92.25;100741.72;5085819;28;20043;-68
2024/03/13 05:54:52;;;;;;;17.58;5.30;;;;;;;7.94;92.41;100752.53;5081403;28;20396;-68
2024/03/13 05:57:22;;;;;;;24.60;5.70;;;;;;;8.00;91.43;100748.53;5089902;28;20391;-67
2024/03/13 05:59:49;;;;;;;17.25;5.78;;;;;;;7.89;92.39;100750.09;5084602;28;20410;-67
2024/03/13 06:02:14;;;;;;;19.85;6.22;;;;;;;7.91;92.39;100744.41;5083343;28;20057;-68
2024/03/13 06:04:40;;;;;;;19.45;7.45;;;;;;;7.78;92.53;100743.59;5090264;28;20024;-67
2024/03/13 06:07:05;;;;;;;14.38;5.03;;;;;;;7.86;93.06;100747.28;5087945;28;20479;-67
2024/03/13 06:09:31;;;;;;;21.77;7.32;;;;;;;7.96;92.63;100741.47;5091080;28;20507;-67
2024/03/13 06:11:57;;;;;;;20.40;6.30;;;;;;;8.07;92.39;100748.00;5092096;28;20028;-67
2024/03/13 06:14:22;;;;;;;15.05;5.53;;;;;;;7.94;93.06;100754.44;5089326;28;20039;-67
2024/03/13 06:16:48;;;;;;;15.35;5.75;;;;;;;8.08;93.44;100768.31;5088286;28;20678;-68
2024/03/13 06:19:13;;;;;;;16.80;5.45;;;;;;;8.21;92.49;100759.13;5090640;28;20029;-67
2024/03/13 06:21:39;;;;;;;19.77;5.95;;;;;;;8.32;91.17;100757.63;5091144;28;20405;-67
2024/03/13 06:24:06;;;;;;;15.85;5.75;;;;;;;8.37;90.93;100775.38;5091563;28;20120;-68
2024/03/13 06:26:31;;;;;;;16.02;5.55;;;;;;;8.36;90.51;100773.81;5095665;28;20026;-68
2024/03/13 06:31:42;;;;;;;18.63;6.57;;;;;;;8.11;92.48;100771.09;5094763;28;20028;-68
2024/03/13 06:34:11;;;;;;;19.92;6.57;;;;;;;8.20;93.13;100784.41;5082133;28;20212;-68
2024/03/13 06:36:37;;;;;;;16.38;6.78;;;;;;;8.28;92.93;100767.47;5092018;28;20038;-68
2024/03/13 06:39:03;;;;;;;20.08;6.07;;;;;;;8.34;92.83;100763.44;5089636;28;20501;-68
2024/03/13 06:41:29;;;;;;;13.82;5.20;;;;;;;8.44;91.94;100768.31;5086066;28;20028;-68
2024/03/13 06:43:55;;;;;;;15.40;6.20;;;;;;;8.43;92.63;100764.09;5086403;28;20032;-68
2024/03/13 06:46:20;;;;;;;14.60;5.72;;;;;;;8.45;92.70;100769.91;5088687;28;20032;-67
2024/03/13 06:48:46;;;;;;;18.50;6.32;;;;;;;8.57;91.73;100761.84;5089680;28;20043;-68
2024/03/13 06:51:13;;;;;;;16.60;5.80;;;;;;;8.53;92.37;100768.22;5091939;28;20047;-68
2024/03/13 06:53:38;;;;;;;16.25;5.78;;;;;;;8.62;91.96;100766.97;5091881;28;20063;-68
2024/03/13 06:56:04;;;;;;;23.02;6.07;;;;;;;8.49;92.53;100762.75;5093800;28;20097;-68
2024/03/13 06:58:30;;;;;;;15.75;5.53;;;;;;;8.59;92.75;100767.66;5089840;28;20093;-68
2024/03/13 07:00:57;;;;;;;16.33;6.20;;;;;;;8.71;91.94;100758.78;5087965;28;20043;-67
2024/03/13 07:03:26;;;;;;;27.70;6.22;;;;;;;8.69;92.19;100764.47;5091061;28;20039;-68
2024/03/13 07:05:51;;;;;;;14.73;4.97;;;;;;;8.74;92.23;100772.31;5093578;28;20089;-68
2024/03/13 07:08:18;;;;;;;16.80;6.47;;;;;;;8.75;92.08;100767.72;5092931;28;20043;-68
2024/03/13 07:10:44;;;;;;;14.38;4.85;;;;;;;8.77;90.71;100768.94;5092811;28;20028;-68
2024/03/13 07:13:11;;;;;;;16.65;5.72;;;;;;;8.65;92.20;100777.00;5108043;27;20044;-68
2024/03/13 07:15:39;;;;;;;18.17;5.28;;;;;;;8.71;92.38;100772.22;5094952;28;20032;-68
2024/03/13 07:18:05;;;;;;;13.25;5.25;;;;;;;8.79;92.16;100774.75;5092583;28;20032;-68
2024/03/13 07:20:30;;;;;;;20.10;5.72;;;;;;;8.64;93.75;100763.94;5095765;28;20119;-67
2024/03/13 07:22:56;;;;;;;18.63;5.47;;;;;;;8.76;93.74;100777.34;5089960;28;20032;-68
2024/03/13 07:25:21;;;;;;;20.75;6.60;;;;;;;8.94;92.71;100774.03;5087821;28;20085;-68
2024/03/13 07:27:47;;;;;;;16.13;6.20;;;;;;;9.04;91.58;100784.31;5090358;28;20036;-68
2024/03/13 07:30:14;;;;;;;16.67;5.63;;;;;;;9.13;91.56;100781.50;5091486;28;20034;-68
2024/03/13 07:32:41;;;;;;;15.30;6.47;;;;;;;9.21;90.92;100783.25;5090453;28;20085;-68
2024/03/13 07:35:10;;;;;;;17.60;6.10;;;;;;;9.28;90.66;100788.81;5087685;28;20036;-68
2024/03/13 07:37:37;;;;;;;18.98;6.75;;;;;;;9.43;89.97;100779.22;5089401;28;20028;-68
2024/03/13 07:40:04;;;;;;;24.05;6.95;;;;;;;9.63;89.55;100780.91;5088118;28;20066;-68
2024/03/13 07:42:30;;;;;;;17.98;5.75;;;;;;;9.63;89.69;100775.53;5089206;28;20073;-68
2024/03/13 07:44:56;;;;;;;14.50;5.80;;;;;;;9.98;88.98;100766.47;5088914;28;20376;-68
2024/03/13 07:47:21;;;;;;;11.55;5.30;;;;;;;10.14;87.25;100763.00;5090450;28;20616;-68
2024/03/13 07:49:47;;;;;;;15.10;5.50;;;;;;;10.21;85.67;100772.03;5104931;27;20040;-68
2024/03/13 07:52:14;;;;;;;16.58;5.38;;;;;;;10.28;85.16;100776.81;5091133;28;20032;-68
2024/03/13 07:54:39;;;;;;;15.55;4.85;;;;;;;10.41;85.56;100783.63;5089762;28;20028;-68
2024/03/13 07:57:05;;;;;;;20.15;6.30;;;;;;;10.42;85.12;100787.88;5091898;28;20040;-68
2024/03/13 07:59:30;;;;;;;17.15;5.80;;;;;;;10.62;84.60;100795.66;5086483;28;20174;-68
2024/03/13 08:01:56;;;;;;;20.98;6.38;;;;;;;10.82;83.62;100794.56;5090976;28;20058;-68
2024/03/13 08:04:24;;;;;;;15.52;6.60;;;;;;;10.89;82.83;100783.94;5091451;28;20835;-67
2024/03/13 08:06:53;;;;;;;12.50;6.90;;;;;;;11.05;81.51;100788.50;5095545;28;20580;-68
2024/03/13 08:09:19;;;;;;;16.83;6.72;;;;;;;11.10;81.00;100780.13;5085956;28;20044;-68
2024/03/13 08:11:45;;;;;;;24.08;7.57;;;;;;;11.29;81.75;100778.19;5091538;28;20035;-68
2024/03/13 08:14:10;;;;;;;17.73;6.10;;;;;;;11.54;79.36;100767.88;5086383;28;20123;-68
2024/03/13 08:16:35;;;;;;;19.42;5.65;;;;;;;11.44;76.94;100763.09;5090713;28;20483;-68
2024/03/13 08:19:01;;;;;;;22.38;6.88;;;;;;;11.30;77.94;100762.81;5091906;28;20028;-68
2024/03/13 08:21:27;;;;;;;15.10;6.75;;;;;;;11.32;77.93;100750.53;5087214;28;20462;-67
2024/03/13 08:23:52;;;;;;;17.15;6.30;;;;;;;11.31;78.86;100742.78;5089186;28;20036;-68
2024/03/13 08:26:18;;;;;;;19.27;6.63;;;;;;;11.39;78.56;100749.88;5089669;28;20036;-68
2024/03/13 08:28:43;;;;;;;20.17;6.75;;;;;;;11.54;79.00;100749.00;5090959;28;20036;-67
2024/03/13 08:31:12;;;;;;;18.23;6.47;;;;;;;11.62;78.40;100751.47;5089202;28;20075;-67
2024/03/13 08:33:37;;;;;;;21.27;6.47;;;;;;;11.77;78.34;100752.50;5088288;28;20036;-68
2024/03/13 08:36:04;;;;;;;18.77;6.50;;;;;;;11.94;76.86;100743.16;5089780;28;20024;-68
2024/03/13 08:38:30;;;;;;;16.65;5.45;;;;;;;11.87;77.07;100748.41;5088622;28;20738;-67
2024/03/13 08:40:56;;;;;;;15.50;5.80;;;;;;;11.96;76.72;100746.28;5089052;28;20494;-68
2024/03/13 08:43:23;;;;;;;11.25;5.22;;;;;;;11.92;76.30;100742.75;5088208;28;20089;-68
2024/03/13 08:45:50;;;;;;;20.20;5.75;;;;;;;11.83;77.22;100747.63;5091572;28;20115;-68
2024/03/13 08:48:15;;;;;;;16.27;5.38;;;;;;;11.86;76.95;100747.66;5103828;27;20478;-67
2024/03/13 08:50:41;;;;;;;13.05;4.65;;;;;;;11.95;77.26;100742.78;5088702;28;20115;-68
2024/03/13 08:53:06;;;;;;;6.05;3.05;;;;;;;11.70;76.34;100733.50;5087972;28;20040;-67
2024/03/13 08:55:35;;;;;;;16.10;6.47;;;;;;;11.77;77.90;100741.72;5091105;28;20187;-68
2024/03/13 08:58:03;;;;;;;16.73;5.45;;;;;;;11.95;77.12;100753.59;5086895;28;20024;-68
2024/03/13 09:00:29;;;;;;;17.25;6.65;;;;;;;12.07;77.74;100744.53;5088902;28;20110;-67
2024/03/13 09:02:57;;;;;;;21.55;5.78;;;;;;;12.04;76.67;100745.25;5090915;28;20150;-68
2024/03/13 09:05:23;;;;;;;17.67;7.00;;;;;;;11.99;77.37;100738.22;5086106;28;20032;-67
2024/03/13 09:07:48;;;;;;;14.75;5.28;;;;;;;12.04;77.70;100753.34;5092018;28;20028;-68
2024/03/13 09:10:16;;;;;;;15.82;5.40;;;;;;;12.12;78.33;100755.78;5088986;28;20051;-67
2024/03/13 09:12:45;;;;;;;20.02;6.07;;;;;;;12.35;78.05;100767.31;5088026;28;20404;-68
2024/03/13 09:15:11;;;;;;;20.60;7.10;;;;;;;12.52;77.52;100766.78;5091574;28;20024;-68
2024/03/13 09:17:38;;;;;;;17.40;6.45;;;;;;;12.83;76.67;100765.69;5089561;28;20103;-67
2024/03/13 09:20:04;;;;;;;20.60;7.13;;;;;;;12.98;76.13;100756.59;5092645;28;20034;-68
2024/03/13 09:22:30;;;;;;;20.40;6.68;;;;;;;13.29;74.44;100764.34;5089493;28;20024;-68
2024/03/13 09:24:55;;;;;;;21.25;6.38;;;;;;;13.34;72.75;100768.63;5087784;28;20028;-68
2024/03/13 09:27:21;;;;;;;12.65;3.60;;;;;;;13.36;70.52;100761.72;5090852;28;20101;-68
2024/03/13 09:29:47;;;;;;;13.50;5.97;;;;;;;13.27;71.94;100772.06;5085525;28;20111;-68
2024/03/13 09:32:13;;;;;;;15.20;5.15;;;;;;;13.26;72.00;100770.47;5088529;28;20081;-68
2024/03/13 09:34:39;;;;;;;19.50;6.00;;;;;;;13.16;73.01;100773.06;5088255;28;20028;-68
2024/03/13 09:37:06;;;;;;;20.38;6.20;;;;;;;13.30;72.60;100763.19;5091480;28;20048;-67
2024/03/13 09:39:32;;;;;;;13.32;4.82;;;;;;;13.36;70.66;100777.16;5089644;28;20040;-67
2024/03/13 09:41:58;;;;;;;22.13;6.68;;;;;;;13.20;70.85;100765.78;5087645;28;20039;-67
2024/03/13 09:44:24;;;;;;;17.67;5.45;;;;;;;13.31;71.39;100782.91;5084201;28;20056;-67
2024/03/13 09:46:53;;;;;;;14.48;4.63;;;;;;;13.37;72.15;100776.81;5087892;28;20499;-68
2024/03/13 09:49:20;;;;;;;10.90;4.28;;;;;;;13.40;70.06;100775.25;5090474;28;20028;-68
2024/03/13 09:51:47;;;;;;;13.95;4.82;;;;;;;13.25;71.12;100778.97;5091288;28;20032;-67
2024/03/13 09:54:14;;;;;;;12.60;5.10;;;;;;;13.18;71.43;100774.25;5085545;28;20039;-67
2024/03/13 09:56:40;;;;;;;13.15;4.43;;;;;;;13.08;71.36;100774.91;5085802;28;20115;-68
2024/03/13 09:59:09;;;;;;;22.83;4.78;;;;;;;13.23;71.33;100763.13;5089834;28;20486;-67
2024/03/13 10:01:42;;;;;;;13.57;4.75;;;;;;;13.30;72.29;100762.41;5086710;28;20119;-68
2024/03/13 10:04:12;;;;;;;14.80;5.38;;;;;;;13.44;71.56;100771.47;5087412;28;20103;-67
2024/03/13 10:06:43;;;;;;;14.68;5.43;;;;;;;13.62;71.42;100771.63;5088464;28;20023;-67
2024/03/13 10:09:14;;;;;;;10.02;3.67;;;;;;;13.78;69.25;100772.16;5087515;28;20380;-68
2024/03/13 10:11:44;;;;;;;;;;;;;;;13.86;69.01;100768.38;5089009;28;20063;-67
2024/03/13 10:14:11;;;;;;;10.60;4.80;;;;;;;13.82;69.47;100775.69;5088165;28;21202;-67
2024/03/13 10:16:42;;;;;;;12.20;4.32;;;;;;;13.74;69.38;100776.00;5090934;28;20096;-67
2024/03/13 10:19:11;;;;;;;;;;;;;;;13.65;69.10;100776.28;5090535;28;20036;-67
2024/03/13 10:21:40;;;;;;;11.80;4.22;;;;;;;13.44;70.02;100771.47;5094726;28;19918;-67
2024/03/13 10:24:08;;;;;;;14.57;4.15;;;;;;;13.35;71.70;100772.91;5090400;28;20043;-68
2024/03/13 10:26:40;;;;;;;13.85;4.60;;;;;;;13.63;71.85;100756.19;5094460;28;20066;-67
2024/03/13 10:29:08;;;;;;;11.95;3.40;;;;;;;13.80;71.35;100760.97;5098245;28;20097;-67
2024/03/13 10:31:36;;;;;;;11.25;4.35;;;;;;;13.98;69.98;100762.69;5097559;28;20127;-67
2024/03/13 10:34:02;;;;;;;8.98;3.92;;;;;;;14.15;69.41;100761.28;5094561;28;20138;-68
2024/03/13 10:36:29;;;;;;;12.20;4.25;;;;;;;14.31;69.44;100749.03;5099306;28;20024;-67
2024/03/13 10:38:56;;;;;;;10.75;4.03;;;;;;;14.48;68.23;100757.66;5094263;28;20036;-68
2024/03/13 10:41:22;;;;;;;7.60;3.80;;;;;;;14.51;67.33;100763.09;5129341;27;20093;-68
2024/03/13 10:43:47;;;;;;;7.55;3.00;;;;;;;14.53;66.54;100754.56;5082318;28;20482;-68
2024/03/13 10:46:13;;;;;;;11.95;4.47;;;;;;;14.33;67.91;100752.13;5100075;28;20035;-67
2024/03/13 10:48:41;;;;;;;9.70;3.20;;;;;;;14.38;68.69;100746.34;5097388;28;20059;-67
2024/03/13 10:51:14;;;;;;;9.05;3.75;;;;;;;14.53;67.52;100749.16;5100802;28;20055;-67
2024/03/13 10:53:39;;;;;;;11.10;4.75;;;;;;;14.45;68.19;100749.13;5097545;28;20036;-67
2024/03/13 10:56:13;;;;;;;10.60;3.42;;;;;;;14.67;68.33;100757.38;5102903;28;20032;-67
2024/03/13 10:58:39;;;;;;;9.77;3.55;;;;;;;14.86;67.47;100765.22;5128920;27;20051;-67
2024/03/13 11:01:04;;;;;;;6.43;3.17;;;;;;;14.73;67.38;100758.56;5101154;28;20032;-67
2024/03/13 11:03:30;;;;;;;8.00;3.45;;;;;;;14.63;68.00;100751.16;5097155;28;20517;-67
2024/03/13 11:05:57;;;;;;;8.27;2.85;;;;;;;14.63;67.66;100765.50;5091460;28;20036;-67
2024/03/13 11:08:26;;;;;;;7.47;2.90;;;;;;;14.64;67.61;100764.31;5081361;28;20124;-67
2024/03/13 11:10:54;;;;;;;7.78;4.07;;;;;;;14.48;68.21;100757.66;5096659;28;20391;-68
2024/03/13 11:13:24;;;;;;;8.57;3.63;;;;;;;14.17;69.66;100754.31;5096622;28;20052;-67
2024/03/13 11:15:52;;;;;;;8.68;3.47;;;;;;;14.15;69.73;100759.31;5094012;28;20029;-67
2024/03/13 11:18:21;;;;;;;6.60;3.13;;;;;;;14.21;70.08;100748.91;5098780;28;20047;-67
2024/03/13 11:21:03;;;;;;;7.75;2.80;;;;;;;14.28;70.09;100755.22;5097567;28;20051;-67
2024/03/13 11:23:44;;;;;;;9.05;3.70;;;;;;;14.35;69.19;100749.84;5099730;28;20490;-67
2024/03/13 11:26:12;;;;;;;12.13;3.25;;;;;;;14.41;69.00;100752.97;5093985;28;20043;-67
2024/03/13 11:28:38;;;;;;;8.60;2.70;;;;;;;14.29;69.62;100745.91;5098980;28;20043;-67
2024/03/13 11:31:06;;;;;;;6.47;3.15;;;;;;;14.30;69.76;100746.72;5077693;28;20016;-67
2024/03/13 11:33:32;;;;;;;7.15;3.10;;;;;;;14.51;69.85;100748.75;5090038;28;20060;-67
2024/03/13 11:35:58;;;;;;;8.50;3.28;;;;;;;14.57;68.99;100745.31;5086737;28;20126;-67
2024/03/13 11:38:24;;;;;;;10.00;4.10;;;;;;;14.68;68.80;100750.78;5091974;28;20032;-67
2024/03/13 11:40:52;;;;;;;5.80;2.95;;;;;;;14.70;67.30;100738.41;5072391;28;20028;-68